createdAt,value
2024-04-07T00:00:15.599Z,29.792000
2024-04-07T00:05:15.718Z,29.795000
2024-04-07T00:10:15.637Z,29.795000
2024-04-07T00:15:15.812Z,29.798000
2024-04-07T00:20:17.710Z,29.799000
2024-04-07T00:25:17.745Z,29.801000
2024-04-07T00:30:15.685Z,29.804000
2024-04-07T00:35:15.781Z,29.807000
2024-04-07T00:40:15.883Z,29.809000
2024-04-07T00:45:15.696Z,29.807000
2024-04-07T00:50:15.739Z,29.810000
2024-04-07T00:55:15.738Z,29.812000
2024-04-07T01:00:15.930Z,29.814000
2024-04-07T01:05:15.963Z,29.815000
2024-04-07T01:10:15.933Z,29.816000
2024-04-07T01:15:15.774Z,29.816000
2024-04-07T01:20:15.750Z,29.817000
2024-04-07T01:25:15.794Z,29.817000
2024-04-07T01:30:15.776Z,29.819000
2024-04-07T01:35:15.870Z,29.822000
2024-04-07T01:40:15.996Z,29.822000
2024-04-07T01:45:16.161Z,29.821000
2024-04-07T01:50:15.830Z,29.822000
2024-04-07T01:55:15.829Z,29.826000
2024-04-07T02:00:15.823Z,29.825000
2024-04-07T02:05:15.834Z,29.829000
2024-04-07T02:10:15.883Z,29.831000
2024-04-07T02:15:15.845Z,29.830000
2024-04-07T02:20:16.075Z,29.834000
2024-04-07T02:25:15.900Z,29.835000
2024-04-07T02:30:15.907Z,29.835000
2024-04-07T02:35:16.126Z,29.835000
2024-04-07T02:40:15.883Z,29.836000
2024-04-07T02:45:15.900Z,29.838000
2024-04-07T02:50:16.158Z,29.837000
2024-04-07T02:55:15.952Z,29.839000
2024-04-07T03:00:16.098Z,29.840000
2024-04-07T03:05:16.013Z,29.842000
2024-04-07T03:10:15.948Z,29.842000
2024-04-07T03:15:15.992Z,29.844000
2024-04-07T03:20:16.013Z,29.844000
2024-04-07T03:25:16.012Z,29.842000
2024-04-07T03:30:15.964Z,29.845000
2024-04-07T03:35:16.177Z,29.844000
2024-04-07T03:40:16.058Z,29.843000
2024-04-07T03:45:16.091Z,29.847000
2024-04-07T03:50:16.129Z,29.847000
2024-04-07T03:55:16.093Z,29.846000
2024-04-07T04:00:15.618Z,29.845000
2024-04-07T04:05:15.670Z,29.846000
2024-04-07T04:10:15.566Z,29.848000
2024-04-07T04:15:15.799Z,29.848000
2024-04-07T04:20:15.771Z,29.851000
2024-04-07T04:25:15.593Z,29.851000
2024-04-07T04:30:15.621Z,29.853000
2024-04-07T04:35:15.599Z,29.853000
2024-04-07T04:40:15.654Z,29.854000
2024-04-07T04:45:15.704Z,29.854000
2024-04-07T04:50:15.843Z,29.856000
2024-04-07T04:55:15.909Z,29.856000
2024-04-07T05:00:15.760Z,29.857000
2024-04-07T05:05:15.715Z,29.859000
2024-04-07T05:10:15.693Z,29.859000
2024-04-07T05:15:15.694Z,29.860000
2024-04-07T05:20:15.715Z,29.860000
2024-04-07T05:25:15.701Z,29.861000
2024-04-07T05:30:15.705Z,29.860000
2024-04-07T05:35:15.711Z,29.860000
2024-04-07T05:40:15.757Z,29.860000
2024-04-07T05:45:15.908Z,29.863000
2024-04-07T05:50:15.751Z,29.862000
2024-04-07T05:55:15.746Z,29.861000
2024-04-07T06:00:15.762Z,29.862000
2024-04-07T06:05:15.765Z,29.862000
2024-04-07T06:10:15.794Z,29.863000
2024-04-07T06:15:15.761Z,29.865000
2024-04-07T06:20:15.778Z,29.863000
2024-04-07T06:25:15.800Z,29.865000
2024-04-07T06:30:15.806Z,29.864000
2024-04-07T06:35:15.855Z,29.863000
2024-04-07T06:40:15.830Z,29.863000
2024-04-07T06:45:15.967Z,29.865000
2024-04-07T06:50:15.823Z,29.866000
2024-04-07T06:55:15.845Z,29.868000
2024-04-07T07:00:15.848Z,29.869000
2024-04-07T07:05:16.028Z,29.872000
2024-04-07T07:10:16.052Z,29.872000
2024-04-07T07:15:15.885Z,29.872000
2024-04-07T07:20:15.874Z,29.870000
2024-04-07T07:25:15.910Z,29.871000
2024-04-07T07:30:15.924Z,29.872000
2024-04-07T07:35:15.891Z,29.872000
2024-04-07T07:40:16.036Z,29.874000
2024-04-07T07:45:15.916Z,29.877000
2024-04-07T07:50:15.946Z,29.875000
2024-04-07T07:55:16.177Z,29.876000
2024-04-07T08:00:24.393Z,29.880000
2024-04-07T08:05:16.146Z,29.881000
2024-04-07T08:10:15.973Z,29.882000
2024-04-07T08:15:15.995Z,29.882000
2024-04-07T08:20:16.053Z,29.881000
2024-04-07T08:25:16.212Z,29.881000
2024-04-07T08:30:16.041Z,29.884000
2024-04-07T08:35:16.013Z,29.884000
2024-04-07T08:40:16.010Z,29.888000
2024-04-07T08:45:16.046Z,29.889000
2024-04-07T08:50:16.017Z,29.891000
2024-04-07T08:55:16.060Z,29.892000
2024-04-07T09:00:16.249Z,29.891000
2024-04-07T09:05:16.175Z,29.893000
2024-04-07T09:10:16.122Z,29.897000
2024-04-07T09:15:16.080Z,29.897000
2024-04-07T09:20:16.109Z,29.899000
2024-04-07T09:25:16.154Z,29.901000
2024-04-07T09:30:16.155Z,29.902000
2024-04-07T09:35:16.319Z,29.903000
2024-04-07T09:40:16.162Z,29.907000
2024-04-07T09:45:16.162Z,29.910000
2024-04-07T09:50:16.343Z,29.912000
2024-04-07T09:55:16.201Z,29.914000
2024-04-07T10:00:16.157Z,29.913000
2024-04-07T10:05:16.163Z,29.915000
2024-04-07T10:10:16.197Z,29.918000
2024-04-07T10:15:16.209Z,29.920000
2024-04-07T10:20:16.225Z,29.924000
2024-04-07T10:25:16.293Z,29.926000
2024-04-07T10:30:16.246Z,29.927000
2024-04-07T10:35:16.320Z,29.928000
2024-04-07T10:40:16.258Z,29.930000
2024-04-07T10:45:16.242Z,29.931000
2024-04-07T10:50:16.493Z,29.933000
2024-04-07T10:55:16.348Z,29.935000
2024-04-07T11:00:16.293Z,29.937000
2024-04-07T11:05:16.284Z,29.938000
2024-04-07T11:10:16.469Z,29.942000
2024-04-07T11:15:16.356Z,29.944000
2024-04-07T11:20:16.294Z,29.947000
2024-04-07T11:25:16.374Z,29.945000
2024-04-07T11:30:16.548Z,29.947000
2024-04-07T11:35:16.561Z,29.950000
2024-04-07T11:40:16.388Z,29.950000
2024-04-07T11:45:16.422Z,29.953000
2024-04-07T11:50:16.386Z,29.955000
2024-04-07T11:55:16.401Z,29.957000
2024-04-07T12:00:16.623Z,29.958000
2024-04-07T12:05:16.452Z,29.960000
2024-04-07T12:10:16.620Z,29.959000
2024-04-07T12:15:16.688Z,29.959000
2024-04-07T12:20:16.430Z,29.959000
2024-04-07T12:25:16.421Z,29.959000
2024-04-07T12:30:16.468Z,29.959000
2024-04-07T12:35:16.636Z,29.961000
2024-04-07T12:40:16.441Z,29.960000
2024-04-07T12:45:16.454Z,29.962000
2024-04-07T12:50:16.514Z,29.962000
2024-04-07T12:55:16.652Z,29.964000
2024-04-07T13:00:16.484Z,29.965000
2024-04-07T13:05:16.495Z,29.966000
2024-04-07T13:10:16.551Z,29.966000
2024-04-07T13:15:16.690Z,29.967000
2024-04-07T13:20:16.541Z,29.968000
2024-04-07T13:25:16.548Z,29.968000
2024-04-07T13:30:16.585Z,29.969000
2024-04-07T13:35:16.735Z,29.968000
2024-04-07T13:40:16.789Z,29.970000
2024-04-07T13:45:16.676Z,29.970000
2024-04-07T13:50:16.620Z,29.970000
2024-04-07T13:55:18.124Z,29.973000
2024-04-07T14:00:16.623Z,29.975000
2024-04-07T14:05:16.834Z,29.977000
2024-04-07T14:10:16.723Z,29.979000
2024-04-07T14:15:16.620Z,29.980000
2024-04-07T14:20:16.678Z,29.981000
2024-04-07T14:25:16.636Z,29.979000
2024-04-07T14:30:16.650Z,29.982000
2024-04-07T14:35:16.827Z,29.982000
2024-04-07T14:40:16.667Z,29.984000
2024-04-07T14:45:16.856Z,29.988000
2024-04-07T14:50:17.372Z,29.989000
2024-04-07T14:55:16.740Z,29.990000
2024-04-07T15:00:16.887Z,29.992000
2024-04-07T15:05:16.736Z,29.995000
2024-04-07T15:10:16.742Z,29.995000
2024-04-07T15:15:16.917Z,29.994000
2024-04-07T15:20:16.772Z,29.991000
2024-04-07T15:25:16.722Z,29.991000
2024-04-07T15:30:16.783Z,29.989000
2024-04-07T15:35:16.850Z,29.989000
2024-04-07T15:40:16.760Z,29.991000
2024-04-07T15:45:16.827Z,29.992000
2024-04-07T15:50:17.027Z,29.990000
2024-04-07T15:55:16.777Z,29.992000
2024-04-07T16:00:16.830Z,29.990000
2024-04-07T16:05:16.891Z,29.990000
2024-04-07T16:10:16.856Z,29.992000
2024-04-07T16:15:17.016Z,29.992000
2024-04-07T16:20:16.878Z,29.994000
2024-04-07T16:25:16.829Z,29.992000
2024-04-07T16:30:16.834Z,29.995000
2024-04-07T16:35:16.898Z,29.995000
2024-04-07T16:40:16.919Z,29.992000
2024-04-07T16:45:16.877Z,29.994000
2024-04-07T16:50:17.117Z,29.994000
2024-04-07T16:55:16.889Z,29.997000
2024-04-07T17:00:16.921Z,29.996000
2024-04-07T17:05:17.139Z,29.995000
2024-04-07T17:10:16.973Z,29.993000
2024-04-07T17:15:16.914Z,29.994000
2024-04-07T17:20:16.964Z,29.994000
2024-04-07T17:25:17.173Z,29.992000
2024-04-07T17:30:16.945Z,29.991000
2024-04-07T17:35:17.166Z,29.992000
2024-04-07T17:40:16.966Z,29.993000
2024-04-07T17:45:16.979Z,29.993000
2024-04-07T17:50:17.058Z,29.994000
2024-04-07T17:55:17.318Z,29.995000
2024-04-07T18:00:17.025Z,29.994000
2024-04-07T18:05:17.160Z,29.993000
2024-04-07T18:10:17.027Z,29.994000
2024-04-07T18:15:17.005Z,29.993000
2024-04-07T18:20:17.139Z,29.994000
2024-04-07T18:25:17.090Z,29.991000
2024-04-07T18:30:19.137Z,29.990000
2024-04-07T18:35:17.230Z,29.988000
2024-04-07T18:40:17.268Z,29.984000
2024-04-07T18:45:17.185Z,29.983000
2024-04-07T18:50:17.142Z,29.984000
2024-04-07T18:55:17.291Z,29.983000
2024-04-07T19:00:17.076Z,29.981000
2024-04-07T19:05:17.142Z,29.980000
2024-04-07T19:10:17.322Z,29.981000
2024-04-07T19:15:17.191Z,29.982000
2024-04-07T19:20:17.207Z,29.982000
2024-04-07T19:25:17.144Z,29.981000
2024-04-07T19:30:17.172Z,29.981000
2024-04-07T19:35:17.290Z,29.980000
2024-04-07T19:40:17.185Z,29.978000
2024-04-07T19:45:19.280Z,29.980000
2024-04-07T19:50:15.216Z,29.980000
2024-04-07T19:55:15.211Z,29.980000
2024-04-07T20:00:15.461Z,29.979000
2024-04-07T20:05:15.404Z,29.981000
2024-04-07T20:10:15.215Z,29.983000
2024-04-07T20:15:15.435Z,29.983000
2024-04-07T20:20:15.286Z,29.985000
2024-04-07T20:25:15.265Z,29.982000
2024-04-07T20:30:15.498Z,29.984000
2024-04-07T20:35:15.554Z,29.984000
2024-04-07T20:40:15.318Z,29.981000
2024-04-07T20:45:15.257Z,29.984000
2024-04-07T20:50:15.297Z,29.985000
2024-04-07T20:55:15.280Z,29.984000
2024-04-07T21:00:21.304Z,29.986000
2024-04-07T21:05:15.619Z,29.986000
2024-04-07T21:10:15.295Z,29.989000
2024-04-07T21:15:15.589Z,29.986000
2024-04-07T21:20:15.524Z,29.990000
2024-04-07T21:25:15.610Z,29.992000
2024-04-07T21:30:15.383Z,29.992000
2024-04-07T21:35:15.373Z,29.995000
2024-04-07T21:40:15.383Z,29.995000
2024-04-07T21:45:15.376Z,29.995000
2024-04-07T21:50:15.434Z,29.998000
2024-04-07T21:55:15.660Z,30.002000
2024-04-07T22:00:15.418Z,30.003000
2024-04-07T22:05:17.064Z,30.005000
2024-04-07T22:10:15.609Z,30.003000
2024-04-07T22:15:15.613Z,30.003000
2024-04-07T22:20:15.460Z,30.007000
2024-04-07T22:25:15.489Z,30.009000
2024-04-07T22:30:15.632Z,30.009000
2024-04-07T22:35:15.528Z,30.011000
2024-04-07T22:40:15.529Z,30.012000
2024-04-07T22:45:15.687Z,30.012000
2024-04-07T22:50:15.496Z,30.013000
2024-04-07T22:55:15.495Z,30.015000
2024-04-07T23:00:15.549Z,30.012000
2024-04-07T23:05:15.526Z,30.013000
2024-04-07T23:10:15.531Z,30.016000
2024-04-07T23:15:15.705Z,30.014000
2024-04-07T23:20:15.506Z,30.015000
2024-04-07T23:25:15.641Z,30.014000
2024-04-07T23:30:15.763Z,30.012000
2024-04-07T23:35:15.539Z,30.012000
2024-04-07T23:40:15.634Z,30.011000
2024-04-07T23:45:16.801Z,30.011000
2024-04-07T23:50:15.831Z,30.011000
2024-04-07T23:55:15.627Z,30.012000
